createdAt,value
2023-10-04T00:00:07.977Z,101725.30
2023-10-04T00:00:38.452Z,101724.79
2023-10-04T00:01:08.881Z,101722.76
2023-10-04T00:01:39.331Z,101727.98
2023-10-04T00:02:09.794Z,101720.92
2023-10-04T00:02:40.274Z,101723.95
2023-10-04T00:03:10.938Z,101721.92
2023-10-04T00:03:41.536Z,101728.83
2023-10-04T00:04:12.257Z,101723.62
2023-10-04T00:04:42.875Z,101730.19
2023-10-04T00:05:13.338Z,101725.80
2023-10-04T00:05:43.768Z,101731.17
2023-10-04T00:06:14.243Z,101726.47
2023-10-04T00:06:44.633Z,101732.72
2023-10-04T00:07:15.049Z,101732.57
2023-10-04T00:07:45.469Z,101736.77
2023-10-04T00:08:15.894Z,101738.46
2023-10-04T00:08:46.330Z,101737.30
2023-10-04T00:09:16.778Z,101742.33
2023-10-04T00:09:47.195Z,101747.34
2023-10-04T00:10:17.616Z,101743.17
2023-10-04T00:10:48.051Z,101746.35
2023-10-04T00:11:18.471Z,101748.02
2023-10-04T00:11:48.903Z,101745.84
2023-10-04T00:12:19.356Z,101744.82
2023-10-04T00:12:49.779Z,101757.77
2023-10-04T00:13:20.197Z,101749.70
2023-10-04T00:13:50.667Z,101754.58
2023-10-04T00:14:21.098Z,101755.94
2023-10-04T00:14:51.516Z,101760.98
2023-10-04T00:15:22.075Z,101755.45
2023-10-04T00:15:52.545Z,101752.94
2023-10-04T00:16:23.010Z,101750.75
2023-10-04T00:16:53.414Z,101755.62
2023-10-04T00:17:23.859Z,101757.62
2023-10-04T00:17:54.732Z,101766.37
2023-10-04T00:18:25.403Z,101761.48
2023-10-04T00:18:55.828Z,101761.14
2023-10-04T00:19:26.260Z,101760.09
2023-10-04T00:19:56.684Z,101761.98
2023-10-04T00:20:27.108Z,101762.95
2023-10-04T00:20:57.577Z,101761.14
2023-10-04T00:21:28.084Z,101762.84
2023-10-04T00:21:58.504Z,101766.89
2023-10-04T00:22:28.933Z,101766.38
2023-10-04T00:22:59.350Z,101769.79
2023-10-04T00:23:29.794Z,101766.41
2023-10-04T00:24:00.272Z,101764.23
2023-10-04T00:24:30.716Z,101763.40
2023-10-04T00:25:01.107Z,101765.44
2023-10-04T00:25:31.532Z,101768.12
2023-10-04T00:26:01.957Z,101766.41
2023-10-04T00:26:32.386Z,101762.89
2023-10-04T00:27:02.847Z,101762.20
2023-10-04T00:27:33.282Z,101761.02
2023-10-04T00:28:03.679Z,101760.52
2023-10-04T00:28:34.110Z,101762.53
2023-10-04T00:29:04.683Z,101759.67
2023-10-04T00:29:35.133Z,101763.19
2023-10-04T00:30:05.599Z,101762.87
2023-10-04T00:30:36.036Z,101762.87
2023-10-04T00:31:06.493Z,101773.99
2023-10-04T00:31:36.912Z,101764.57
2023-10-04T00:32:07.317Z,101771.28
2023-10-04T00:32:37.776Z,101767.75
2023-10-04T00:33:08.286Z,101770.09
2023-10-04T00:33:38.772Z,101773.09
2023-10-04T00:34:09.168Z,101773.81
2023-10-04T00:34:39.607Z,101774.31
2023-10-04T00:35:10.046Z,101779.36
2023-10-04T00:35:40.454Z,101778.52
2023-10-04T00:36:10.928Z,101783.42
2023-10-04T00:36:41.319Z,101781.25
2023-10-04T00:37:11.755Z,101783.91
2023-10-04T00:37:42.196Z,101776.38
2023-10-04T00:38:12.636Z,101782.79
2023-10-04T00:38:43.079Z,101779.93
2023-10-04T00:39:13.495Z,101778.23
2023-10-04T00:39:43.908Z,101775.89
2023-10-04T00:40:14.333Z,101777.39
2023-10-04T00:40:44.784Z,101776.38
2023-10-04T00:41:15.191Z,101774.02
2023-10-04T00:41:45.614Z,101777.38
2023-10-04T00:42:16.083Z,101780.58
2023-10-04T00:42:46.473Z,101777.03
2023-10-04T00:43:16.899Z,101781.44
2023-10-04T00:43:47.316Z,101782.94
2023-10-04T00:44:17.737Z,101780.44
2023-10-04T00:44:48.169Z,101783.95
2023-10-04T00:45:18.630Z,101784.28
2023-10-04T00:45:49.129Z,101786.81
2023-10-04T00:46:19.660Z,101788.55
2023-10-04T00:46:50.058Z,101783.53
2023-10-04T00:47:20.491Z,101786.86
2023-10-04T00:47:50.967Z,101786.18
2023-10-04T00:48:21.430Z,101785.97
2023-10-04T00:48:51.869Z,101788.13
2023-10-04T00:49:22.253Z,101785.12
2023-10-04T00:49:52.690Z,101787.46
2023-10-04T00:50:23.119Z,101787.98
2023-10-04T00:50:53.563Z,101784.94
2023-10-04T00:51:24.330Z,101784.62
2023-10-04T00:51:55.009Z,101785.45
2023-10-04T00:52:25.598Z,101782.94
2023-10-04T00:52:56.028Z,101784.28
2023-10-04T00:53:26.445Z,101785.97
2023-10-04T00:53:56.930Z,101786.81
2023-10-04T00:54:27.413Z,101786.47
2023-10-04T00:54:57.832Z,101781.41
2023-10-04T00:55:28.248Z,101782.43
2023-10-04T00:55:58.689Z,101783.42
2023-10-04T00:56:29.104Z,101778.72
2023-10-04T00:56:59.597Z,101781.59
2023-10-04T00:57:30.025Z,101777.89
2023-10-04T00:58:00.399Z,101782.44
2023-10-04T00:58:30.835Z,101775.37
2023-10-04T00:59:01.373Z,101772.70
2023-10-04T00:59:31.842Z,101769.69
2023-10-04T01:00:02.295Z,101770.86
2023-10-04T01:00:32.778Z,101769.33
2023-10-04T01:01:03.227Z,101771.20
2023-10-04T01:01:33.667Z,101773.55
2023-10-04T01:02:04.091Z,101771.20
2023-10-04T01:02:34.650Z,101773.39
2023-10-04T01:03:05.277Z,101774.90
2023-10-04T01:03:35.941Z,101775.07
2023-10-04T01:04:06.563Z,101771.20
2023-10-04T01:04:36.994Z,101775.58
2023-10-04T01:05:07.488Z,101777.91
2023-10-04T01:05:37.941Z,101776.06
2023-10-04T01:06:08.393Z,101770.48
2023-10-04T01:06:38.923Z,101773.55
2023-10-04T01:07:09.363Z,101773.89
2023-10-04T01:07:39.784Z,101772.03
2023-10-04T01:08:10.210Z,101770.17
2023-10-04T01:08:40.628Z,101771.83
2023-10-04T01:09:11.099Z,101769.84
2023-10-04T01:09:41.532Z,101773.55
2023-10-04T01:10:11.922Z,101768.16
2023-10-04T01:10:42.347Z,101771.84
2023-10-04T01:11:12.768Z,101775.05
2023-10-04T01:11:43.199Z,101773.55
2023-10-04T01:12:13.641Z,101772.19
2023-10-04T01:12:44.061Z,101775.23
2023-10-04T01:13:14.480Z,101772.38
2023-10-04T01:13:44.901Z,101774.06
2023-10-04T01:14:15.320Z,101774.40
2023-10-04T01:14:45.745Z,101775.23
2023-10-04T01:15:16.222Z,101775.77
2023-10-04T01:15:46.621Z,101776.29
2023-10-04T01:16:17.111Z,101776.45
2023-10-04T01:16:47.501Z,101780.47
2023-10-04T01:17:17.921Z,101778.62
2023-10-04T01:17:48.386Z,101777.30
2023-10-04T01:18:18.806Z,101778.46
2023-10-04T01:18:49.216Z,101772.42
2023-10-04T01:19:19.644Z,101772.95
2023-10-04T01:19:50.093Z,101776.12
2023-10-04T01:20:20.475Z,101775.45
2023-10-04T01:20:50.911Z,101772.76
2023-10-04T01:21:21.367Z,101778.65
2023-10-04T01:21:51.766Z,101774.27
2023-10-04T01:22:22.190Z,101781.00
2023-10-04T01:22:52.630Z,101778.48
2023-10-04T01:23:23.055Z,101777.78
2023-10-04T01:23:53.507Z,101783.64
2023-10-04T01:24:23.943Z,101780.62
2023-10-04T01:24:54.329Z,101783.30
2023-10-04T01:25:24.771Z,101783.67
2023-10-04T01:25:55.208Z,101783.02
2023-10-04T01:26:25.641Z,101780.84
2023-10-04T01:26:56.068Z,101780.66
2023-10-04T01:27:26.538Z,101781.84
2023-10-04T01:27:56.920Z,101782.35
2023-10-04T01:28:27.351Z,101780.83
2023-10-04T01:28:57.773Z,101780.67
2023-10-04T01:29:28.197Z,101781.53
2023-10-04T01:29:58.630Z,101780.67
2023-10-04T01:30:29.103Z,101783.03
2023-10-04T01:30:59.589Z,101779.32
2023-10-04T01:31:30.062Z,101777.12
2023-10-04T01:32:00.483Z,101778.98
2023-10-04T01:32:30.960Z,101780.33
2023-10-04T01:33:01.617Z,101783.38
2023-10-04T01:33:32.241Z,101786.73
2023-10-04T01:34:02.674Z,101780.88
2023-10-04T01:34:33.106Z,101777.21
2023-10-04T01:35:03.518Z,101780.58
2023-10-04T01:35:33.955Z,101782.56
2023-10-04T01:36:04.444Z,101780.88
2023-10-04T01:36:34.939Z,101780.69
2023-10-04T01:37:05.353Z,101781.70
2023-10-04T01:37:35.763Z,101779.52
2023-10-04T01:38:06.198Z,101776.33
2023-10-04T01:38:36.604Z,101776.02
2023-10-04T01:39:07.289Z,101775.53
2023-10-04T01:39:37.888Z,101776.84
2023-10-04T01:40:08.317Z,101772.12
2023-10-04T01:40:38.756Z,101773.60
2023-10-04T01:41:09.173Z,101774.27
2023-10-04T01:41:39.603Z,101774.12
2023-10-04T01:42:10.053Z,101771.95
2023-10-04T01:42:40.591Z,101773.28
2023-10-04T01:43:11.029Z,101768.74
2023-10-04T01:43:41.447Z,101768.93
2023-10-04T01:44:11.867Z,101769.09
2023-10-04T01:44:42.284Z,101770.45
2023-10-04T01:45:12.771Z,101766.91
2023-10-04T01:45:43.191Z,101772.15
2023-10-04T01:46:13.611Z,101772.80
2023-10-04T01:46:44.061Z,101772.97
2023-10-04T01:47:14.453Z,101777.72
2023-10-04T01:47:44.901Z,101776.16
2023-10-04T01:48:15.384Z,101777.00
2023-10-04T01:48:45.830Z,101768.93
2023-10-04T01:49:16.231Z,101774.48
2023-10-04T01:49:46.651Z,101775.66
2023-10-04T01:50:17.112Z,101774.65
2023-10-04T01:50:47.523Z,101778.39
2023-10-04T01:51:17.967Z,101777.87
2023-10-04T01:51:49.161Z,101772.84
2023-10-04T01:52:19.614Z,101772.97
2023-10-04T01:52:50.031Z,101771.81
2023-10-04T01:53:20.457Z,101773.52
2023-10-04T01:53:50.872Z,101775.53
2023-10-04T01:54:21.324Z,101770.13
2023-10-04T01:54:51.741Z,101770.82
2023-10-04T01:55:22.181Z,101773.83
2023-10-04T01:55:52.604Z,101771.79
2023-10-04T01:56:23.032Z,101770.12
2023-10-04T01:56:53.470Z,101769.94
2023-10-04T01:57:23.919Z,101769.28
2023-10-04T01:57:54.329Z,101771.97
2023-10-04T01:58:25.085Z,101766.61
2023-10-04T01:58:55.819Z,101766.95
2023-10-04T01:59:26.249Z,101764.44
2023-10-04T01:59:56.678Z,101766.62
2023-10-04T02:00:27.167Z,101764.42
2023-10-04T02:00:57.697Z,101768.16
2023-10-04T02:01:28.201Z,101765.30
2023-10-04T02:01:58.643Z,101767.83
2023-10-04T02:02:29.568Z,101763.29
2023-10-04T02:03:00.198Z,101764.98
2023-10-04T02:03:30.848Z,101768.35
2023-10-04T02:04:01.402Z,101768.86
2023-10-04T02:04:31.916Z,101771.87
2023-10-04T02:05:02.337Z,101769.02
2023-10-04T02:05:32.834Z,101768.50
2023-10-04T02:06:03.287Z,101769.31
2023-10-04T02:06:33.821Z,101769.29
2023-10-04T02:07:04.291Z,101772.63
2023-10-04T02:07:34.721Z,101764.91
2023-10-04T02:08:05.166Z,101761.23
2023-10-04T02:08:35.601Z,101758.20
2023-10-04T02:09:06.150Z,101759.72
2023-10-04T02:09:36.707Z,101764.07
2023-10-04T02:10:07.100Z,101760.53
2023-10-04T02:10:37.560Z,101755.51
2023-10-04T02:11:07.972Z,101756.70
2023-10-04T02:11:38.398Z,101758.07
2023-10-04T02:12:08.882Z,101759.55
2023-10-04T02:12:39.359Z,101758.58
2023-10-04T02:13:09.865Z,101765.98
2023-10-04T02:13:40.285Z,101767.50
2023-10-04T02:14:10.736Z,101764.63
2023-10-04T02:14:41.147Z,101764.07
2023-10-04T02:15:11.664Z,101766.59
2023-10-04T02:15:42.173Z,101768.47
2023-10-04T02:16:12.658Z,101765.94
2023-10-04T02:16:48.003Z,101768.11
2023-10-04T02:17:18.432Z,101769.81
2023-10-04T02:17:48.906Z,101768.80
2023-10-04T02:18:19.324Z,101767.14
2023-10-04T02:18:49.890Z,101768.51
2023-10-04T02:19:20.614Z,101767.52
2023-10-04T02:19:51.021Z,101770.20
2023-10-04T02:20:21.450Z,101770.70
2023-10-04T02:20:51.887Z,101765.50
2023-10-04T02:21:22.321Z,101765.81
2023-10-04T02:21:52.735Z,101771.20
2023-10-04T02:22:23.159Z,101771.20
2023-10-04T02:22:53.586Z,101770.52
2023-10-04T02:23:24.007Z,101775.75
2023-10-04T02:23:54.445Z,101778.25
2023-10-04T02:24:24.912Z,101774.55
2023-10-04T02:24:55.329Z,101776.39
2023-10-04T02:25:25.753Z,101777.95
2023-10-04T02:25:56.173Z,101770.05
2023-10-04T02:26:26.595Z,101771.09
2023-10-04T02:26:57.019Z,101772.56
2023-10-04T02:27:27.499Z,101776.94
2023-10-04T02:27:57.912Z,101773.39
2023-10-04T02:28:28.343Z,101772.06
2023-10-04T02:28:58.776Z,101767.52
2023-10-04T02:29:29.219Z,101771.03
2023-10-04T02:29:59.699Z,101772.08
2023-10-04T02:30:30.127Z,101770.53
2023-10-04T02:31:00.555Z,101771.38
2023-10-04T02:31:31.145Z,101771.74
2023-10-04T02:32:01.539Z,101774.27
2023-10-04T02:32:32.013Z,101775.27
2023-10-04T02:33:02.464Z,101775.44
2023-10-04T02:33:33.077Z,101774.73
2023-10-04T02:34:03.588Z,101774.24
2023-10-04T02:34:34.027Z,101773.91
2023-10-04T02:35:04.425Z,101771.20
2023-10-04T02:35:34.870Z,101773.41
2023-10-04T02:36:05.312Z,101772.08
2023-10-04T02:36:35.742Z,101775.81
2023-10-04T02:37:06.160Z,101775.14
2023-10-04T02:37:36.593Z,101768.92
2023-10-04T02:38:07.018Z,101772.92
2023-10-04T02:38:37.509Z,101773.93
2023-10-04T02:39:08.100Z,101770.23
2023-10-04T02:39:38.542Z,101770.73
2023-10-04T02:40:08.956Z,101772.92
2023-10-04T02:40:39.392Z,101774.28
2023-10-04T02:41:09.825Z,101770.39
2023-10-04T02:41:40.250Z,101770.22
2023-10-04T02:42:10.705Z,101766.36
2023-10-04T02:42:41.136Z,101766.53
2023-10-04T02:43:11.578Z,101770.58
2023-10-04T02:43:42.026Z,101767.05
2023-10-04T02:44:12.422Z,101764.03
2023-10-04T02:44:42.848Z,101768.04
2023-10-04T02:45:13.306Z,101767.38
2023-10-04T02:45:43.745Z,101764.67
2023-10-04T02:46:14.286Z,101768.20
2023-10-04T02:46:44.781Z,101772.92
2023-10-04T02:47:15.173Z,101769.91
2023-10-04T02:47:45.723Z,101768.38
2023-10-04T02:48:16.121Z,101771.54
2023-10-04T02:48:46.607Z,101769.87
2023-10-04T02:49:16.977Z,101774.41
2023-10-04T02:49:47.417Z,101770.91
2023-10-04T02:50:17.911Z,101772.88
2023-10-04T02:50:48.309Z,101771.38
2023-10-04T02:51:18.780Z,101771.55
2023-10-04T02:51:49.176Z,101769.53
2023-10-04T02:52:19.602Z,101770.06
2023-10-04T02:52:50.053Z,101772.79
2023-10-04T02:53:20.475Z,101772.77
2023-10-04T02:53:50.911Z,101770.47
2023-10-04T02:54:21.360Z,101772.13
2023-10-04T02:54:51.759Z,101772.12
2023-10-04T02:55:22.183Z,101773.25
2023-10-04T02:55:52.602Z,101771.74
2023-10-04T02:56:23.574Z,101770.92
2023-10-04T02:56:53.944Z,101769.77
2023-10-04T02:57:24.425Z,101773.80
2023-10-04T02:57:54.815Z,101768.41
2023-10-04T02:58:25.235Z,101772.29
2023-10-04T02:58:55.654Z,101768.71
2023-10-04T02:59:26.078Z,101767.55
2023-10-04T02:59:56.500Z,101763.57
2023-10-04T03:00:26.999Z,101765.09
2023-10-04T03:00:57.516Z,101769.11
2023-10-04T03:01:28.021Z,101774.84
2023-10-04T03:01:58.459Z,101768.42
2023-10-04T03:02:28.908Z,101773.61
2023-10-04T03:02:59.362Z,101765.73
2023-10-04T03:03:29.816Z,101768.08
2023-10-04T03:04:00.197Z,101767.05
2023-10-04T03:04:30.626Z,101766.04
2023-10-04T03:05:01.068Z,101766.88
2023-10-04T03:05:31.518Z,101770.91
2023-10-04T03:06:01.976Z,101767.26
2023-10-04T03:06:32.463Z,101761.69
2023-10-04T03:07:02.896Z,101763.70
2023-10-04T03:07:33.370Z,101769.44
2023-10-04T03:08:03.793Z,101764.75
2023-10-04T03:08:34.220Z,101763.73
2023-10-04T03:09:04.798Z,101768.08
2023-10-04T03:09:35.519Z,101765.22
2023-10-04T03:10:05.956Z,101764.38
2023-10-04T03:10:36.361Z,101764.56
2023-10-04T03:11:06.781Z,101768.25
2023-10-04T03:11:37.212Z,101766.05
2023-10-04T03:12:07.667Z,101764.70
2023-10-04T03:12:38.119Z,101768.25
2023-10-04T03:13:08.516Z,101763.70
2023-10-04T03:13:38.928Z,101765.03
2023-10-04T03:14:09.355Z,101769.07
2023-10-04T03:14:40.106Z,101768.44
2023-10-04T03:15:10.593Z,101767.58
2023-10-04T03:15:41.108Z,101771.44
2023-10-04T03:16:11.610Z,101773.30
2023-10-04T03:16:42.083Z,101773.81
2023-10-04T03:17:12.512Z,101773.31
2023-10-04T03:17:42.979Z,101773.30
2023-10-04T03:18:13.502Z,101767.57
2023-10-04T03:18:44.064Z,101772.75
2023-10-04T03:19:14.639Z,101773.59
2023-10-04T03:19:45.093Z,101774.28
2023-10-04T03:20:15.509Z,101777.50
2023-10-04T03:20:45.913Z,101772.44
2023-10-04T03:21:16.354Z,101777.84
2023-10-04T03:21:46.915Z,101770.94
2023-10-04T03:22:17.452Z,101770.60
2023-10-04T03:22:47.879Z,101777.00
2023-10-04T03:23:18.307Z,101772.62
2023-10-04T03:23:48.738Z,101772.48
2023-10-04T03:24:19.166Z,101779.05
2023-10-04T03:24:49.579Z,101777.17
2023-10-04T03:25:20.000Z,101774.64
2023-10-04T03:25:50.427Z,101772.99
2023-10-04T03:26:20.860Z,101772.99
2023-10-04T03:26:51.304Z,101775.35
2023-10-04T03:27:21.790Z,101774.84
2023-10-04T03:27:52.170Z,101778.73
2023-10-04T03:28:22.595Z,101780.06
2023-10-04T03:28:53.018Z,101778.72
2023-10-04T03:29:23.437Z,101781.24
2023-10-04T03:29:53.862Z,101777.72
2023-10-04T03:30:24.340Z,101782.92
2023-10-04T03:30:54.809Z,101782.77
2023-10-04T03:31:25.328Z,101780.88
2023-10-04T03:31:55.744Z,101780.91
2023-10-04T03:32:26.186Z,101778.38
2023-10-04T03:32:56.609Z,101787.77
2023-10-04T03:33:27.080Z,101782.89
2023-10-04T03:33:57.516Z,101787.78
2023-10-04T03:34:27.910Z,101786.12
2023-10-04T03:34:58.331Z,101785.43
2023-10-04T03:35:28.775Z,101784.45
2023-10-04T03:35:59.198Z,101783.61
2023-10-04T03:36:29.672Z,101785.45
2023-10-04T03:37:00.067Z,101786.80
2023-10-04T03:37:30.500Z,101781.23
2023-10-04T03:38:00.927Z,101786.44
2023-10-04T03:38:31.351Z,101782.72
2023-10-04T03:39:02.035Z,101784.61
2023-10-04T03:39:32.586Z,101784.79
2023-10-04T03:40:02.979Z,101789.11
2023-10-04T03:40:33.450Z,101787.43
2023-10-04T03:41:03.844Z,101786.60
2023-10-04T03:41:34.277Z,101792.66
2023-10-04T03:42:04.694Z,101788.47
2023-10-04T03:42:35.149Z,101796.02
2023-10-04T03:43:05.561Z,101794.84
2023-10-04T03:43:35.986Z,101792.66
2023-10-04T03:44:06.397Z,101795.38
2023-10-04T03:44:36.812Z,101797.23
2023-10-04T03:45:07.269Z,101795.39
2023-10-04T03:45:37.701Z,101794.88
2023-10-04T03:46:08.125Z,101792.01
2023-10-04T03:46:38.616Z,101797.42
2023-10-04T03:47:09.050Z,101796.42
2023-10-04T03:47:39.513Z,101789.97
2023-10-04T03:48:10.011Z,101787.48
2023-10-04T03:48:40.463Z,101793.73
2023-10-04T03:49:10.891Z,101799.11
2023-10-04T03:49:41.285Z,101792.01
2023-10-04T03:50:11.710Z,101792.03
2023-10-04T03:50:42.172Z,101799.41
2023-10-04T03:51:13.076Z,101799.78
2023-10-04T03:51:43.617Z,101791.69
2023-10-04T03:52:14.009Z,101799.09
2023-10-04T03:52:44.431Z,101798.74
2023-10-04T03:53:14.852Z,101808.02
2023-10-04T03:53:45.298Z,101806.34
2023-10-04T03:54:15.720Z,101806.33
2023-10-04T03:54:46.124Z,101806.36
2023-10-04T03:55:16.571Z,101808.87
2023-10-04T03:55:46.997Z,101806.68
2023-10-04T03:56:17.598Z,101810.88
2023-10-04T03:56:48.024Z,101809.88
2023-10-04T03:57:18.478Z,101810.52
2023-10-04T03:57:48.911Z,101806.33
2023-10-04T03:58:19.345Z,101807.67
2023-10-04T03:58:49.752Z,101804.81
2023-10-04T03:59:20.185Z,101810.02
2023-10-04T03:59:50.613Z,101806.97
2023-10-04T04:00:21.093Z,101808.16
2023-10-04T04:00:51.483Z,101801.46
2023-10-04T04:01:21.951Z,101807.66
2023-10-04T04:01:52.389Z,101804.81
2023-10-04T04:02:22.823Z,101805.50
2023-10-04T04:02:53.518Z,101805.67
2023-10-04T04:03:24.074Z,101810.05
2023-10-04T04:03:54.669Z,101806.68
2023-10-04T04:04:25.241Z,101798.76
2023-10-04T04:04:56.043Z,101804.29
2023-10-04T04:05:26.507Z,101800.08
2023-10-04T04:05:56.932Z,101804.14
2023-10-04T04:06:27.388Z,101798.45
2023-10-04T04:06:57.795Z,101801.80
2023-10-04T04:07:28.221Z,101799.59
2023-10-04T04:07:58.653Z,101805.14
2023-10-04T04:08:29.073Z,101802.12
2023-10-04T04:08:59.508Z,101802.78
2023-10-04T04:09:30.010Z,101797.75
2023-10-04T04:10:00.412Z,101795.73
2023-10-04T04:10:30.840Z,101802.78
2023-10-04T04:11:01.263Z,101799.25
2023-10-04T04:11:31.699Z,101804.45
2023-10-04T04:12:02.156Z,101801.47
2023-10-04T04:12:32.580Z,101804.66
2023-10-04T04:13:03.006Z,101805.50
2023-10-04T04:13:33.428Z,101805.50
2023-10-04T04:14:03.848Z,101803.78
2023-10-04T04:14:34.277Z,101800.91
2023-10-04T04:15:04.747Z,101808.01
2023-10-04T04:15:35.201Z,101806.52
2023-10-04T04:16:05.592Z,101808.70
2023-10-04T04:16:36.055Z,101801.13
2023-10-04T04:17:06.496Z,101805.86
2023-10-04T04:17:36.927Z,101811.55
2023-10-04T04:18:07.441Z,101807.86
2023-10-04T04:18:38.070Z,101805.66
2023-10-04T04:19:08.474Z,101809.20
2023-10-04T04:19:38.906Z,101813.09
2023-10-04T04:20:09.328Z,101812.88
2023-10-04T04:20:39.749Z,101810.72
2023-10-04T04:21:10.253Z,101809.03
2023-10-04T04:21:40.746Z,101806.84
2023-10-04T04:22:11.132Z,101810.73
2023-10-04T04:22:41.547Z,101801.48
2023-10-04T04:23:12.048Z,101815.44
2023-10-04T04:23:42.463Z,101809.38
2023-10-04T04:24:12.910Z,101814.44
2023-10-04T04:24:43.365Z,101810.36
2023-10-04T04:25:13.756Z,101811.05
2023-10-04T04:25:44.240Z,101808.70
2023-10-04T04:26:14.631Z,101814.75
2023-10-04T04:26:45.054Z,101811.39
2023-10-04T04:27:15.497Z,101811.38
2023-10-04T04:27:45.983Z,101814.44
2023-10-04T04:28:16.404Z,101815.28
2023-10-04T04:28:46.833Z,101809.03
2023-10-04T04:29:17.297Z,101811.09
2023-10-04T04:29:47.719Z,101810.56
2023-10-04T04:30:18.223Z,101809.91
2023-10-04T04:30:48.785Z,101806.88
2023-10-04T04:31:19.247Z,101807.35
2023-10-04T04:31:49.666Z,101810.55
2023-10-04T04:32:20.101Z,101811.41
2023-10-04T04:32:50.595Z,101810.89
2023-10-04T04:33:21.113Z,101812.73
2023-10-04T04:33:51.607Z,101814.92
2023-10-04T04:34:22.009Z,101813.75
2023-10-04T04:34:52.437Z,101814.92
2023-10-04T04:35:22.865Z,101813.42
2023-10-04T04:35:53.300Z,101812.06
2023-10-04T04:36:23.792Z,101812.59
2023-10-04T04:36:54.186Z,101810.40
2023-10-04T04:37:24.595Z,101816.13
2023-10-04T04:37:55.031Z,101820.50
2023-10-04T04:38:25.452Z,101816.47
2023-10-04T04:38:55.894Z,101814.62
2023-10-04T04:39:26.352Z,101815.64
2023-10-04T04:39:56.733Z,101812.30
2023-10-04T04:40:27.155Z,101815.33
2023-10-04T04:41:00.280Z,101814.64
2023-10-04T04:41:32.087Z,101819.85
2023-10-04T04:42:02.510Z,101810.45
2023-10-04T04:42:33.016Z,101812.28
2023-10-04T04:43:03.423Z,101807.58
2023-10-04T04:43:33.857Z,101812.77
2023-10-04T04:44:04.290Z,101814.62
2023-10-04T04:44:34.736Z,101816.13
2023-10-04T04:45:05.169Z,101808.23
2023-10-04T04:45:35.695Z,101811.91
2023-10-04T04:46:06.098Z,101806.88
2023-10-04T04:46:36.631Z,101813.77
2023-10-04T04:47:07.132Z,101810.55
2023-10-04T04:47:37.568Z,101810.59
2023-10-04T04:48:08.096Z,101808.73
2023-10-04T04:48:40.673Z,101809.20
2023-10-04T04:49:11.296Z,101807.39
2023-10-04T04:49:41.715Z,101805.72
2023-10-04T04:50:12.144Z,101809.41
2023-10-04T04:50:42.550Z,101803.36
2023-10-04T04:51:13.083Z,101801.30
2023-10-04T04:51:43.591Z,101808.72
2023-10-04T04:52:13.996Z,101806.34
2023-10-04T04:52:44.423Z,101808.20
2023-10-04T04:53:14.849Z,101807.35
2023-10-04T04:53:45.279Z,101808.87
2023-10-04T04:54:15.727Z,101819.47
2023-10-04T04:54:46.181Z,101819.83
2023-10-04T04:55:16.587Z,101807.38
2023-10-04T04:55:47.013Z,101808.38
2023-10-04T04:56:17.432Z,101805.70
2023-10-04T04:56:47.857Z,101809.76
2023-10-04T04:57:18.318Z,101812.77
2023-10-04T04:57:48.817Z,101812.11
2023-10-04T04:58:19.263Z,101810.28
2023-10-04T04:58:49.814Z,101809.95
2023-10-04T04:59:20.207Z,101816.16
2023-10-04T04:59:50.631Z,101809.95
2023-10-04T05:00:21.106Z,101813.00
2023-10-04T05:00:51.530Z,101815.68
2023-10-04T05:01:21.946Z,101815.33
2023-10-04T05:01:52.486Z,101817.52
2023-10-04T05:02:22.968Z,101814.15
2023-10-04T05:02:53.434Z,101823.05
2023-10-04T05:03:23.853Z,101818.34
2023-10-04T05:03:54.397Z,101818.35
2023-10-04T05:04:24.902Z,101820.38
2023-10-04T05:04:55.303Z,101818.48
2023-10-04T05:05:25.739Z,101816.97
2023-10-04T05:05:56.178Z,101817.17
2023-10-04T05:06:26.753Z,101817.17
2023-10-04T05:06:57.305Z,101816.67
2023-10-04T05:07:27.704Z,101818.84
2023-10-04T05:07:58.164Z,101818.84
2023-10-04T05:08:28.588Z,101817.66
2023-10-04T05:08:59.007Z,101820.00
2023-10-04T05:09:29.481Z,101819.87
2023-10-04T05:09:59.885Z,101821.70
2023-10-04T05:10:30.343Z,101819.33
2023-10-04T05:11:00.750Z,101823.05
2023-10-04T05:11:31.180Z,101827.23
2023-10-04T05:12:01.601Z,101820.69
2023-10-04T05:12:32.103Z,101820.17
2023-10-04T05:13:02.509Z,101822.38
2023-10-04T05:13:32.932Z,101816.82
2023-10-04T05:14:05.472Z,101826.04
2023-10-04T05:14:37.454Z,101820.36
2023-10-04T05:15:07.941Z,101822.56
2023-10-04T05:15:38.358Z,101815.19
2023-10-04T05:16:08.774Z,101818.72
2023-10-04T05:16:39.226Z,101821.56
2023-10-04T05:17:09.651Z,101812.48
2023-10-04T05:17:40.146Z,101817.84
2023-10-04T05:18:10.803Z,101816.17
2023-10-04T05:18:41.281Z,101815.16
2023-10-04T05:19:11.694Z,101818.55
2023-10-04T05:19:42.105Z,101814.16
2023-10-04T05:20:12.525Z,101820.23
2023-10-04T05:20:42.963Z,101821.27
2023-10-04T05:21:13.440Z,101821.73
2023-10-04T05:21:43.979Z,101816.03
2023-10-04T05:22:14.432Z,101816.53
2023-10-04T05:22:44.840Z,101816.03
2023-10-04T05:23:15.270Z,101819.87
2023-10-04T05:23:45.692Z,101819.05
2023-10-04T05:24:16.184Z,101816.84
2023-10-04T05:24:46.596Z,101817.17
2023-10-04T05:25:17.031Z,101813.27
2023-10-04T05:25:47.451Z,101816.99
2023-10-04T05:26:17.875Z,101813.29
2023-10-04T05:26:48.325Z,101817.16
2023-10-04T05:27:18.805Z,101814.97
2023-10-04T05:27:49.187Z,101819.70
2023-10-04T05:28:19.606Z,101821.36
2023-10-04T05:28:50.046Z,101821.38
2023-10-04T05:29:20.452Z,101818.52
2023-10-04T05:29:50.888Z,101819.03
2023-10-04T05:30:21.336Z,101819.05
2023-10-04T05:30:51.741Z,101819.53
2023-10-04T05:31:22.204Z,101826.59
2023-10-04T05:31:52.701Z,101825.77
2023-10-04T05:32:23.196Z,101829.45
2023-10-04T05:32:53.648Z,101827.94
2023-10-04T05:33:24.210Z,101829.61
2023-10-04T05:33:54.718Z,101827.70
2023-10-04T05:34:25.210Z,101824.84
2023-10-04T05:34:55.585Z,101827.23
2023-10-04T05:35:26.005Z,101825.05
2023-10-04T05:35:56.531Z,101825.72
2023-10-04T05:36:26.952Z,101827.25
2023-10-04T05:36:57.373Z,101826.05
2023-10-04T05:37:27.822Z,101825.35
2023-10-04T05:37:58.232Z,101825.05
2023-10-04T05:38:28.650Z,101826.23
2023-10-04T05:38:59.071Z,101833.81
2023-10-04T05:39:29.543Z,101830.95
2023-10-04T05:39:59.938Z,101828.09
2023-10-04T05:40:30.359Z,101831.78
2023-10-04T05:41:00.786Z,101832.78
2023-10-04T05:41:31.233Z,101829.95
2023-10-04T05:42:01.660Z,101827.10
2023-10-04T05:42:32.148Z,101828.27
2023-10-04T05:43:02.564Z,101833.83
2023-10-04T05:43:32.978Z,101838.19
2023-10-04T05:44:03.396Z,101831.95
2023-10-04T05:44:33.849Z,101833.30
2023-10-04T05:45:04.278Z,101836.69
2023-10-04T05:45:34.750Z,101832.80
2023-10-04T05:46:05.190Z,101837.50
2023-10-04T05:46:35.643Z,101835.68
2023-10-04T05:47:06.026Z,101834.33
2023-10-04T05:47:36.482Z,101834.85